La Suprema — IBIL — position and weather

sailwx.info

Track history (hours):
 
Tides and Currents Weather Stations Pressure Air Temp Water Temp Dewpoint Dewpoint Depression Visibility Wind Speed Wind Dir Waves Ship Positions

La Suprema

Last reported at 2017-Feb-22 01:33 UTC. Time now 2017-Feb-22 01:34 UTC.
Position N 43°18' E 009°29'.

Length 211 m; draft 7.2 m.

Type: Passenger vessel. MMSI: 247083700.

Date/timePositionNaut miles runAvg speedWind from/ knotsBaromVisibWave heightAir tempDewpointWater temp
2017-Feb-22 01:33N 43°18' E 009°29'2221.8
2017-Feb-22 00:33N 43°38' E 009°18'2221.9
2017-Feb-21 23:33N 43°58' E 009°08'2222.2
2017-Feb-21 22:34N 44°19' E 008°58'5 5.2
2017-Feb-21 21:30N 44°25' E 008°55'0 0.0
2017-Feb-21 20:33N 44°25' E 008°55'0 0.0
2017-Feb-21 19:32N 44°25' E 008°55'0 0.0
2017-Feb-21 18:26N 44°25' E 008°55'2 1.9
2017-Feb-21 17:33N 44°23' E 008°57'2020.2
2017-Feb-21 16:33N 44°05' E 009°07'2221.8
2017-Feb-21 15:33N 43°44' E 009°18'2221.7
2017-Feb-21 14:33N 43°24' E 009°27'35025.0
2017-Feb-21 00:33N 38°21' E 013°18'1311.9
2017-Feb-20 23:27N 38°08' E 013°22'0 0.0
2017-Feb-20 22:33N 38°08' E 013°22'0 0.0
2017-Feb-20 21:33N 38°08' E 013°22'0 0.0
2017-Feb-20 20:33N 38°08' E 013°22'2 2.0
2017-Feb-20 19:33N 38°09' E 013°24'12413.8
2017-Feb-20 10:33N 36°07' E 013°58'2726.4
2017-Feb-20 09:33N 35°49' E 014°21'4 0.8
2017-Feb-20 04:14N 35°46' E 014°25'1522.3
2017-Feb-20 03:33N 35°55' E 014°10'2222.2
2017-Feb-20 02:33N 36°10' E 013°51'13817.3
2017-Feb-19 18:33N 38°13' E 012°30'3423.2
2017-Feb-19 17:04N 38°16' E 013°14'918.4
2017-Feb-19 16:33N 38°11' E 013°24'4 3.5
2017-Feb-19 15:26N 38°08' E 013°22'0 0.0
2017-Feb-19 14:04N 38°08' E 013°22'0 0.0
2017-Feb-19 13:34N 38°08' E 013°22'9 8.6
2017-Feb-19 12:33N 38°16' E 013°22'33423.6
2017-Feb-18 22:23N 43°03' E 009°35'2226.1
2017-Feb-18 21:33N 43°24' E 009°26'2625.9
2017-Feb-18 20:33N 43°48' E 009°13'2625.6
2017-Feb-18 19:34N 44°12' E 009°01'1311.1
2017-Feb-18 18:22N 44°25' E 008°55'0 0.0
2017-Feb-18 17:30N 44°25' E 008°55'0 0.0
2017-Feb-18 16:24N 44°25' E 008°55'0 0.0
2017-Feb-18 15:32N 44°25' E 008°55'0 0.3
2017-Feb-18 14:33N 44°24' E 008°55'1817.9
2017-Feb-18 13:33N 44°08' E 009°05'2222.3
2017-Feb-18 12:34N 43°47' E 009°16'2322.5
2017-Feb-18 11:34N 43°26' E 009°27'33223.7
2017-Feb-17 21:33N 38°37' E 013°04'2424.5
2017-Feb-17 20:34N 38°17' E 013°22'9 8.3
2017-Feb-17 19:30N 38°08' E 013°22'0 0.0
2017-Feb-17 18:32N 38°08' E 013°22'0 0.0
2017-Feb-17 17:32N 38°08' E 013°22'0 0.0
2017-Feb-17 16:31N 38°08' E 013°22'2 1.7
2017-Feb-17 15:33N 38°08' E 013°24'2020.4
2017-Feb-17 14:33N 38°27' E 013°13'32323.0
2017-Feb-17 00:31N 43°04' E 009°34'2324.1
2017-Feb-16 23:34N 43°26' E 009°25'2423.9
2017-Feb-16 22:34N 43°49' E 009°13'2424.3
2017-Feb-16 21:34N 44°11' E 009°02'1411.8
2017-Feb-16 20:22N 44°25' E 008°55'0 0.0
2017-Feb-16 19:16N 44°25' E 008°55'0 0.0
2017-Feb-16 18:24N 44°25' E 008°55'0 0.0
2017-Feb-16 17:30N 44°25' E 008°55'1 1.1
2017-Feb-16 16:33N 44°24' E 008°56'2020.5
2017-Feb-16 15:33N 44°05' E 009°07'2222.4
2017-Feb-16 14:33N 43°44' E 009°17'2222.4
2017-Feb-16 13:33N 43°23' E 009°29'33023.6
2017-Feb-15 23:33N 38°36' E 013°05'2424.5
2017-Feb-15 22:34N 38°16' E 013°22'8 7.8
2017-Feb-15 21:32N 38°08' E 013°22'0 0.0
2017-Feb-15 20:32N 38°08' E 013°22'0 0.0
2017-Feb-15 19:31N 38°08' E 013°22'0 0.0
2017-Feb-15 18:16N 38°08' E 013°22'1 1.7
2017-Feb-15 17:33N 38°07' E 013°23'34022.3
2017-Feb-15 02:21N 42°60' E 009°36'1822.5
2017-Feb-15 01:34N 43°17' E 009°29'2322.5
2017-Feb-15 00:33N 43°38' E 009°19'2222.4
2017-Feb-14 23:34N 43°58' E 009°07'2322.6
2017-Feb-14 22:34N 44°20' E 008°58'5 4.6
2017-Feb-14 21:28N 44°24' E 008°55'0 0.0
2017-Feb-14 20:31N 44°24' E 008°55'0 0.0
2017-Feb-14 19:27N 44°24' E 008°55'0 0.0
2017-Feb-14 18:21N 44°24' E 008°55'0 0.5
2017-Feb-14 17:33N 44°24' E 008°55'1818.0
2017-Feb-14 16:33N 44°08' E 009°05'2121.1
2017-Feb-14 15:33N 43°48' E 009°16'2221.6
2017-Feb-14 14:34N 43°28' E 009°26'2221.4
2017-Feb-14 13:33N 43°07' E 009°36'34624.7
2017-Feb-13 23:34N 38°08' E 013°25'2 2.3
2017-Feb-13 22:32N 38°08' E 013°22'0 0.0
2017-Feb-13 21:29N 38°08' E 013°22'0 0.0
2017-Feb-13 20:31N 38°08' E 013°22'2 1.9
2017-Feb-13 19:33N 38°09' E 013°24'1110.6
2017-Feb-13 18:33N 38°16' E 013°15'12915.3
2017-Feb-13 10:06N 36°10' E 013°52'1527.7
2017-Feb-13 09:33N 36°00' E 014°06'21 3.9
2017-Feb-13 04:10N 35°46' E 014°25'1321.4
2017-Feb-13 03:33N 35°54' E 014°12'2121.5
2017-Feb-13 02:34N 36°09' E 013°53'14518.0
2017-Feb-12 18:31N 38°14' E 012°21'2122.2
2017-Feb-12 17:34N 38°17' E 012°48'2222.3
2017-Feb-12 16:34N 38°19' E 013°16'1211.8
2017-Feb-12 15:32N 38°08' E 013°22'0 0.0
2017-Feb-12 14:31N 38°08' E 013°22'0 0.0
2017-Feb-12 13:31N 38°08' E 013°22'3 3.1
2017-Feb-12 12:33N 38°10' E 013°24'2625.6
2017-Feb-12 11:33N 38°33' E 013°08'  
Track history (hours):
 
Tides and Currents Weather Stations Pressure Air Temp Water Temp Dewpoint Dewpoint Depression Visibility Wind Speed Wind Dir Waves Ship Positions

La Suprema

Last reported at 2017-Feb-22 01:33 UTC. Time now 2017-Feb-22 01:34 UTC.
Position N 43°18' E 009°29'.

Length 211 m; draft 7.2 m.

Type: Passenger vessel. MMSI: 247083700.

Date/timePositionNaut miles runAvg speedWind from/ knotsBaromVisibWave heightAir tempDewpointWater temp
2017-Feb-22 01:33N 43°18' E 009°29'2221.8
2017-Feb-22 00:33N 43°38' E 009°18'2221.9
2017-Feb-21 23:33N 43°58' E 009°08'2222.2
2017-Feb-21 22:34N 44°19' E 008°58'5 5.2
2017-Feb-21 21:30N 44°25' E 008°55'0 0.0
2017-Feb-21 20:33N 44°25' E 008°55'0 0.0
2017-Feb-21 19:32N 44°25' E 008°55'0 0.0
2017-Feb-21 18:26N 44°25' E 008°55'2 1.9
2017-Feb-21 17:33N 44°23' E 008°57'2020.2
2017-Feb-21 16:33N 44°05' E 009°07'2221.8
2017-Feb-21 15:33N 43°44' E 009°18'2221.7
2017-Feb-21 14:33N 43°24' E 009°27'35025.0
2017-Feb-21 00:33N 38°21' E 013°18'1311.9
2017-Feb-20 23:27N 38°08' E 013°22'0 0.0
2017-Feb-20 22:33N 38°08' E 013°22'0 0.0
2017-Feb-20 21:33N 38°08' E 013°22'0 0.0
2017-Feb-20 20:33N 38°08' E 013°22'2 2.0
2017-Feb-20 19:33N 38°09' E 013°24'12413.8
2017-Feb-20 10:33N 36°07' E 013°58'2726.4
2017-Feb-20 09:33N 35°49' E 014°21'4 0.8
2017-Feb-20 04:14N 35°46' E 014°25'1522.3
2017-Feb-20 03:33N 35°55' E 014°10'2222.2
2017-Feb-20 02:33N 36°10' E 013°51'13817.3
2017-Feb-19 18:33N 38°13' E 012°30'3423.2
2017-Feb-19 17:04N 38°16' E 013°14'918.4
2017-Feb-19 16:33N 38°11' E 013°24'4 3.5
2017-Feb-19 15:26N 38°08' E 013°22'0 0.0
2017-Feb-19 14:04N 38°08' E 013°22'0 0.0
2017-Feb-19 13:34N 38°08' E 013°22'9 8.6
2017-Feb-19 12:33N 38°16' E 013°22'33423.6
2017-Feb-18 22:23N 43°03' E 009°35'2226.1
2017-Feb-18 21:33N 43°24' E 009°26'2625.9
2017-Feb-18 20:33N 43°48' E 009°13'2625.6
2017-Feb-18 19:34N 44°12' E 009°01'1311.1
2017-Feb-18 18:22N 44°25' E 008°55'0 0.0
2017-Feb-18 17:30N 44°25' E 008°55'0 0.0
2017-Feb-18 16:24N 44°25' E 008°55'0 0.0
2017-Feb-18 15:32N 44°25' E 008°55'0 0.3
2017-Feb-18 14:33N 44°24' E 008°55'1817.9
2017-Feb-18 13:33N 44°08' E 009°05'2222.3
2017-Feb-18 12:34N 43°47' E 009°16'2322.5
2017-Feb-18 11:34N 43°26' E 009°27'33223.7
2017-Feb-17 21:33N 38°37' E 013°04'2424.5
2017-Feb-17 20:34N 38°17' E 013°22'9 8.3
2017-Feb-17 19:30N 38°08' E 013°22'0 0.0
2017-Feb-17 18:32N 38°08' E 013°22'0 0.0
2017-Feb-17 17:32N 38°08' E 013°22'0 0.0
2017-Feb-17 16:31N 38°08' E 013°22'2 1.7
2017-Feb-17 15:33N 38°08' E 013°24'2020.4
2017-Feb-17 14:33N 38°27' E 013°13'32323.0
2017-Feb-17 00:31N 43°04' E 009°34'2324.1
2017-Feb-16 23:34N 43°26' E 009°25'2423.9
2017-Feb-16 22:34N 43°49' E 009°13'2424.3
2017-Feb-16 21:34N 44°11' E 009°02'1411.8
2017-Feb-16 20:22N 44°25' E 008°55'0 0.0
2017-Feb-16 19:16N 44°25' E 008°55'0 0.0
2017-Feb-16 18:24N 44°25' E 008°55'0 0.0
2017-Feb-16 17:30N 44°25' E 008°55'1 1.1
2017-Feb-16 16:33N 44°24' E 008°56'2020.5
2017-Feb-16 15:33N 44°05' E 009°07'2222.4
2017-Feb-16 14:33N 43°44' E 009°17'2222.4
2017-Feb-16 13:33N 43°23' E 009°29'33023.6
2017-Feb-15 23:33N 38°36' E 013°05'2424.5
2017-Feb-15 22:34N 38°16' E 013°22'8 7.8
2017-Feb-15 21:32N 38°08' E 013°22'0 0.0
2017-Feb-15 20:32N 38°08' E 013°22'0 0.0
2017-Feb-15 19:31N 38°08' E 013°22'0 0.0
2017-Feb-15 18:16N 38°08' E 013°22'1 1.7
2017-Feb-15 17:33N 38°07' E 013°23'34022.3
2017-Feb-15 02:21N 42°60' E 009°36'1822.5
2017-Feb-15 01:34N 43°17' E 009°29'2322.5
2017-Feb-15 00:33N 43°38' E 009°19'2222.4
2017-Feb-14 23:34N 43°58' E 009°07'2322.6
2017-Feb-14 22:34N 44°20' E 008°58'5 4.6
2017-Feb-14 21:28N 44°24' E 008°55'0 0.0
2017-Feb-14 20:31N 44°24' E 008°55'0 0.0
2017-Feb-14 19:27N 44°24' E 008°55'0 0.0
2017-Feb-14 18:21N 44°24' E 008°55'0 0.5
2017-Feb-14 17:33N 44°24' E 008°55'1818.0
2017-Feb-14 16:33N 44°08' E 009°05'2121.1
2017-Feb-14 15:33N 43°48' E 009°16'2221.6
2017-Feb-14 14:34N 43°28' E 009°26'2221.4
2017-Feb-14 13:33N 43°07' E 009°36'34624.7
2017-Feb-13 23:34N 38°08' E 013°25'2 2.3
2017-Feb-13 22:32N 38°08' E 013°22'0 0.0
2017-Feb-13 21:29N 38°08' E 013°22'0 0.0
2017-Feb-13 20:31N 38°08' E 013°22'2 1.9
2017-Feb-13 19:33N 38°09' E 013°24'1110.6
2017-Feb-13 18:33N 38°16' E 013°15'12915.3
2017-Feb-13 10:06N 36°10' E 013°52'1527.7
2017-Feb-13 09:33N 36°00' E 014°06'21 3.9
2017-Feb-13 04:10N 35°46' E 014°25'1321.4
2017-Feb-13 03:33N 35°54' E 014°12'2121.5
2017-Feb-13 02:34N 36°09' E 013°53'14518.0
2017-Feb-12 18:31N 38°14' E 012°21'2122.2
2017-Feb-12 17:34N 38°17' E 012°48'2222.3
2017-Feb-12 16:34N 38°19' E 013°16'1211.8
2017-Feb-12 15:32N 38°08' E 013°22'0 0.0
2017-Feb-12 14:31N 38°08' E 013°22'0 0.0
2017-Feb-12 13:31N 38°08' E 013°22'3 3.1
2017-Feb-12 12:33N 38°10' E 013°24'2625.6
2017-Feb-12 11:33N 38°33' E 013°08'  

Dump ship's entire track history